createdAt,value
2019-04-28T00:02:01.306Z,15.57
2019-04-28T00:04:34.179Z,14.60
2019-04-28T00:07:06.538Z,14.43
2019-04-28T00:09:38.525Z,15.60
2019-04-28T00:12:11.492Z,14.50
2019-04-28T00:14:43.879Z,13.77
2019-04-28T00:17:16.230Z,13.87
2019-04-28T00:19:48.535Z,14.57
2019-04-28T00:22:38.985Z,14.80
2019-04-28T00:25:24.185Z,14.57
2019-04-28T00:27:56.338Z,15.50
2019-04-28T00:30:28.595Z,14.53
2019-04-28T00:33:01.777Z,14.67
2019-04-28T00:35:35.278Z,15.27
2019-04-28T00:38:07.566Z,15.80
2019-04-28T00:40:41.261Z,15.33
2019-04-28T00:43:13.648Z,15.40
2019-04-28T00:45:45.805Z,16.83
2019-04-28T00:48:18.424Z,15.37
2019-04-28T00:50:51.869Z,15.77
2019-04-28T00:53:24.266Z,15.60
2019-04-28T00:55:56.313Z,15.63
2019-04-28T00:58:28.490Z,14.83
2019-04-28T01:01:03.668Z,15.30
2019-04-28T01:03:35.725Z,15.40
2019-04-28T01:06:07.866Z,14.03
2019-04-28T01:08:41.949Z,14.30
2019-04-28T01:11:14.087Z,14.20
2019-04-28T01:13:46.393Z,13.40
2019-04-28T01:16:40.201Z,12.30
2019-04-28T01:19:20.215Z,12.53
2019-04-28T01:22:13.556Z,12.03
2019-04-28T01:24:46.063Z,13.10
2019-04-28T01:27:50.514Z,12.97
2019-04-28T01:30:53.081Z,13.07
2019-04-28T01:33:36.786Z,12.10
2019-04-28T01:36:10.354Z,12.57
2019-04-28T01:38:42.717Z,12.73
2019-04-28T01:41:14.773Z,12.90
2019-04-28T01:43:46.891Z,12.90
2019-04-28T01:46:19.872Z,12.73
2019-04-28T01:48:52.195Z,12.67
2019-04-28T01:51:24.379Z,12.73
2019-04-28T01:53:56.716Z,12.43
2019-04-28T01:56:30.313Z,12.00
2019-04-28T01:59:02.907Z,12.80
2019-04-28T02:01:35.099Z,12.60
2019-04-28T02:04:07.747Z,12.20
2019-04-28T02:06:40.023Z,12.63
2019-04-28T02:09:13.100Z,11.70
2019-04-28T02:11:45.310Z,11.73
2019-04-28T02:14:17.327Z,12.27
2019-04-28T02:16:50.393Z,10.93
2019-04-28T02:19:23.670Z,11.73
2019-04-28T02:22:03.451Z,11.70
2019-04-28T02:24:36.020Z,10.77
2019-04-28T02:27:10.405Z,10.63
2019-04-28T02:29:42.277Z,11.53
2019-04-28T02:32:14.273Z,11.00
2019-04-28T02:34:46.728Z,11.73
2019-04-28T02:37:20.642Z,10.57
2019-04-28T02:39:53.079Z,10.63
2019-04-28T02:42:25.278Z,10.13
2019-04-28T02:45:00.291Z,10.43
2019-04-28T02:47:34.111Z,10.70
2019-04-28T02:50:30.493Z,10.60
2019-04-28T02:53:12.833Z,10.70
2019-04-28T02:55:45.201Z,10.40
2019-04-28T02:58:17.129Z,11.00
2019-04-28T03:01:02.591Z,10.20
2019-04-28T03:03:23.934Z,10.37
2019-04-28T03:05:56.177Z,10.93
2019-04-28T03:08:30.609Z,9.97
2019-04-28T03:11:03.188Z,11.13
2019-04-28T03:13:36.887Z,11.20
2019-04-28T03:16:10.832Z,11.53
2019-04-28T03:18:42.783Z,12.17
2019-04-28T03:21:14.952Z,12.13
2019-04-28T03:23:47.190Z,11.77
2019-04-28T03:26:35.669Z,11.80
2019-04-28T03:29:30.494Z,11.03
2019-04-28T03:32:43.865Z,11.63
2019-04-28T03:35:05.364Z,11.53
2019-04-28T03:37:37.508Z,11.07
2019-04-28T03:40:11.498Z,11.60
2019-04-28T03:42:43.943Z,11.47
2019-04-28T03:45:22.292Z,11.33
2019-04-28T03:47:54.482Z,10.67
2019-04-28T03:50:26.754Z,10.70
2019-04-28T03:53:00.898Z,11.23
2019-04-28T03:55:34.974Z,10.73
2019-04-28T03:58:06.393Z,10.13
2019-04-28T04:00:40.839Z,10.10
2019-04-28T04:03:12.404Z,10.47
2019-04-28T04:05:44.666Z,9.60
2019-04-28T04:08:16.758Z,9.77
2019-04-28T04:11:10.609Z,8.97
2019-04-28T04:13:46.575Z,8.50
2019-04-28T04:16:40.671Z,8.90
2019-04-28T04:19:13.663Z,8.47
2019-04-28T04:21:45.563Z,8.17
2019-04-28T04:24:20.518Z,7.93
2019-04-28T04:26:52.382Z,8.03
2019-04-28T04:29:24.210Z,7.80
2019-04-28T04:32:10.087Z,7.90
2019-04-28T04:34:30.281Z,7.87
2019-04-28T04:37:02.690Z,7.67
2019-04-28T04:39:34.898Z,8.03
2019-04-28T04:42:07.266Z,7.43
2019-04-28T04:44:41.564Z,6.83
2019-04-28T04:47:12.995Z,7.13
2019-04-28T04:49:44.902Z,7.30
2019-04-28T04:52:16.910Z,6.90
2019-04-28T04:54:51.051Z,6.37
2019-04-28T04:57:22.999Z,6.70
2019-04-28T04:59:55.099Z,6.50
2019-04-28T05:02:51.738Z,6.40
2019-04-28T05:05:40.818Z,6.47
2019-04-28T05:08:15.483Z,6.03
2019-04-28T05:10:46.827Z,6.53
2019-04-28T05:13:20.069Z,5.73
2019-04-28T05:15:52.634Z,6.20
2019-04-28T05:18:24.764Z,5.83
2019-04-28T05:20:56.898Z,6.27
2019-04-28T05:23:39.873Z,6.33
2019-04-28T05:26:11.721Z,6.67
2019-04-28T05:28:50.459Z,6.83
2019-04-28T05:31:23.018Z,6.17
2019-04-28T05:33:51.922Z,6.27
2019-04-28T05:36:24.533Z,6.57
2019-04-28T05:38:56.477Z,6.43
2019-04-28T05:41:29.569Z,5.90
2019-04-28T05:44:01.908Z,5.97
2019-04-28T05:46:34.148Z,6.00
2019-04-28T05:49:29.706Z,6.17
2019-04-28T05:52:09.639Z,6.13
2019-04-28T05:54:51.801Z,5.90
2019-04-28T05:57:33.320Z,5.60
2019-04-28T06:00:31.190Z,5.77
2019-04-28T06:03:07.015Z,5.60
2019-04-28T06:05:39.590Z,5.07
2019-04-28T06:08:40.713Z,5.60
2019-04-28T06:11:33.823Z,5.20
2019-04-28T06:14:06.316Z,5.10
2019-04-28T06:16:40.429Z,4.53
2019-04-28T06:19:13.347Z,4.97
2019-04-28T06:21:45.383Z,5.57
2019-04-28T06:24:17.399Z,4.90
2019-04-28T06:26:49.554Z,4.53
2019-04-28T06:29:21.953Z,4.70
2019-04-28T06:31:53.951Z,4.80
2019-04-28T06:34:26.189Z,4.80
2019-04-28T06:36:58.370Z,4.40
2019-04-28T06:39:30.425Z,4.33
2019-04-28T06:42:02.526Z,4.67
2019-04-28T06:44:34.619Z,4.63
2019-04-28T06:47:07.790Z,4.10
2019-04-28T06:49:40.056Z,4.30
2019-04-28T06:52:12.834Z,4.10
2019-04-28T06:54:45.282Z,3.47
2019-04-28T06:57:17.257Z,4.00
2019-04-28T06:59:49.321Z,3.80
2019-04-28T07:02:21.637Z,3.90
2019-04-28T07:05:01.726Z,3.43
2019-04-28T07:07:27.678Z,3.87
2019-04-28T07:09:59.918Z,3.67
2019-04-28T07:12:31.799Z,3.67
2019-04-28T07:15:04.068Z,3.83
2019-04-28T07:17:36.387Z,4.00
2019-04-28T07:20:33.729Z,3.57
2019-04-28T07:23:09.473Z,3.60
2019-04-28T07:25:41.754Z,4.00
2019-04-28T07:28:13.901Z,4.07
2019-04-28T07:30:46.166Z,4.80
2019-04-28T07:33:18.129Z,5.23
2019-04-28T07:35:50.403Z,5.10
2019-04-28T07:38:22.388Z,5.03
2019-04-28T07:40:54.748Z,5.23
2019-04-28T07:43:26.938Z,6.40
2019-04-28T07:45:59.213Z,5.70
2019-04-28T07:48:31.641Z,15.07
2019-04-28T07:51:04.825Z,11.57
2019-04-28T07:54:05.351Z,7.30
2019-04-28T07:56:37.558Z,5.80
2019-04-28T07:59:09.738Z,5.90
2019-04-28T08:01:41.756Z,5.90
2019-04-28T08:04:14.016Z,6.80
2019-04-28T08:06:46.212Z,6.00
2019-04-28T08:09:19.013Z,6.10
2019-04-28T08:11:51.133Z,6.07
2019-04-28T08:14:23.529Z,6.53
2019-04-28T08:16:55.978Z,6.07
2019-04-28T08:19:28.038Z,6.77
2019-04-28T08:22:00.381Z,8.50
2019-04-28T08:24:32.597Z,7.30
2019-04-28T08:27:04.905Z,7.30
2019-04-28T08:29:37.017Z,8.60
2019-04-28T08:32:33.558Z,7.40
2019-04-28T08:35:05.860Z,6.90
2019-04-28T08:37:37.942Z,7.30
2019-04-28T08:40:10.226Z,10.30
2019-04-28T08:42:42.395Z,10.57
2019-04-28T08:45:14.876Z,10.87
2019-04-28T08:47:47.044Z,11.10
2019-04-28T08:50:19.390Z,13.00
2019-04-28T08:52:51.736Z,13.33
2019-04-28T08:55:23.793Z,15.30
2019-04-28T08:57:55.965Z,16.13
2019-04-28T09:00:28.132Z,17.73
2019-04-28T09:03:00.269Z,17.13
2019-04-28T09:05:33.161Z,15.63
2019-04-28T09:08:06.825Z,18.03
2019-04-28T09:10:38.837Z,18.43
2019-04-28T09:13:10.880Z,16.47
2019-04-28T09:15:42.883Z,20.87
2019-04-28T09:18:15.101Z,23.03
2019-04-28T09:20:47.220Z,20.73
2019-04-28T09:23:19.432Z,19.23
2019-04-28T09:25:51.460Z,17.47
2019-04-28T09:28:23.869Z,17.03
2019-04-28T09:30:56.149Z,23.50
2019-04-28T09:33:28.362Z,27.17
2019-04-28T09:36:00.475Z,24.63
2019-04-28T09:38:32.726Z,23.47
2019-04-28T09:41:04.983Z,23.97
2019-04-28T09:44:11.450Z,22.53
2019-04-28T09:46:44.175Z,19.47
2019-04-28T09:49:16.423Z,23.10
2019-04-28T09:51:48.667Z,13.20
2019-04-28T09:54:20.697Z,7.70
2019-04-28T09:56:57.048Z,7.43
2019-04-28T09:59:26.534Z,6.43
2019-04-28T10:01:58.881Z,6.93
2019-04-28T10:04:41.047Z,7.10
2019-04-28T10:07:04.811Z,7.73
2019-04-28T10:09:37.114Z,8.50
2019-04-28T10:12:09.471Z,8.17
2019-04-28T10:14:41.355Z,11.70
2019-04-28T10:17:13.356Z,11.47
2019-04-28T10:19:45.577Z,13.07
2019-04-28T10:22:17.986Z,15.10
2019-04-28T10:24:50.176Z,7.50
2019-04-28T10:27:22.284Z,7.37
2019-04-28T10:29:54.522Z,7.70
2019-04-28T10:32:26.750Z,8.53
2019-04-28T10:34:58.783Z,8.57
2019-04-28T10:37:30.887Z,8.50
2019-04-28T10:40:07.444Z,7.67
2019-04-28T10:42:39.743Z,8.07
2019-04-28T10:45:13.731Z,7.00
2019-04-28T10:47:46.045Z,6.97
2019-04-28T10:50:18.403Z,6.30
2019-04-28T10:52:50.626Z,6.97
2019-04-28T10:55:22.838Z,9.27
2019-04-28T10:57:54.919Z,6.70
2019-04-28T11:00:29.172Z,6.97
2019-04-28T11:03:01.280Z,6.73
2019-04-28T11:05:43.969Z,5.73
2019-04-28T11:08:29.043Z,7.17
2019-04-28T11:11:04.057Z,6.10
2019-04-28T11:13:36.046Z,7.20
2019-04-28T11:16:08.664Z,7.13
2019-04-28T11:18:41.043Z,6.60
2019-04-28T11:21:13.414Z,5.90
2019-04-28T11:23:45.638Z,5.53
2019-04-28T11:26:17.752Z,5.90
2019-04-28T11:28:50.016Z,5.30
2019-04-28T11:31:22.005Z,5.53
2019-04-28T11:36:46.337Z,5.70
2019-04-28T11:39:22.704Z,6.40
2019-04-28T11:41:54.922Z,6.40
2019-04-28T11:44:27.066Z,5.53
2019-04-28T11:46:59.564Z,5.40
2019-04-28T11:49:31.627Z,5.23
2019-04-28T11:52:03.719Z,5.87
2019-04-28T11:54:36.194Z,6.23
2019-04-28T11:57:08.452Z,6.63
2019-04-28T11:59:40.806Z,6.97
2019-04-28T12:02:13.390Z,6.87
2019-04-28T12:04:45.447Z,6.43
2019-04-28T12:07:17.758Z,6.77
2019-04-28T12:10:04.940Z,6.90
2019-04-28T12:12:53.178Z,6.47
2019-04-28T12:15:35.822Z,5.83
2019-04-28T12:18:38.474Z,5.87
2019-04-28T12:21:11.808Z,13.47
2019-04-28T12:23:45.005Z,5.53
2019-04-28T12:26:17.593Z,5.57
2019-04-28T12:28:49.660Z,4.70
2019-04-28T12:31:21.685Z,4.67
2019-04-28T12:33:53.915Z,5.10
2019-04-28T12:36:26.064Z,4.30
2019-04-28T12:38:58.185Z,6.63
2019-04-28T12:41:30.474Z,6.53
2019-04-28T12:44:02.549Z,6.87
2019-04-28T12:46:34.921Z,6.37
2019-04-28T12:49:17.036Z,19.13
2019-04-28T12:51:49.095Z,7.30
2019-04-28T12:54:23.170Z,6.57
2019-04-28T12:56:55.533Z,6.83
2019-04-28T12:59:33.308Z,7.47
2019-04-28T13:02:11.386Z,7.17
2019-04-28T13:04:47.004Z,6.27
2019-04-28T13:07:19.216Z,5.87
2019-04-28T13:09:51.512Z,6.10
2019-04-28T13:12:23.503Z,5.90
2019-04-28T13:14:55.645Z,5.37
2019-04-28T13:17:29.194Z,5.30
2019-04-28T13:20:01.233Z,5.37
2019-04-28T13:22:34.479Z,5.60
2019-04-28T13:25:06.729Z,6.23
2019-04-28T13:27:38.927Z,6.57
2019-04-28T13:30:11.459Z,7.20
2019-04-28T13:32:43.464Z,7.10
2019-04-28T13:35:16.178Z,7.87
2019-04-28T13:37:48.151Z,7.30
2019-04-28T13:40:25.780Z,7.77
2019-04-28T13:42:57.748Z,9.17
2019-04-28T13:45:29.812Z,8.43
2019-04-28T13:48:01.770Z,8.23
2019-04-28T13:50:38.009Z,7.50
2019-04-28T13:53:10.326Z,6.97
2019-04-28T13:55:59.727Z,9.17
2019-04-28T13:58:40.984Z,8.60
2019-04-28T14:01:31.714Z,8.33
2019-04-28T14:04:28.651Z,15.40
2019-04-28T14:07:02.983Z,7.43
2019-04-28T14:09:35.189Z,7.47
2019-04-28T14:12:07.206Z,7.20
2019-04-28T14:14:39.303Z,7.37
2019-04-28T14:17:11.426Z,6.63
2019-04-28T14:19:43.670Z,7.20
2019-04-28T14:22:16.044Z,7.43
2019-04-28T14:24:48.187Z,7.20
2019-04-28T14:27:20.477Z,7.53
2019-04-28T14:29:52.896Z,7.77
2019-04-28T14:32:25.063Z,8.20
2019-04-28T14:34:57.240Z,7.53
2019-04-28T14:37:30.457Z,7.60
2019-04-28T14:40:02.605Z,7.13
2019-04-28T14:42:36.503Z,7.30
2019-04-28T14:45:10.037Z,7.47
2019-04-28T14:47:42.418Z,6.83
2019-04-28T14:50:14.583Z,6.50
2019-04-28T14:52:46.575Z,7.13
2019-04-28T14:55:18.816Z,7.83
2019-04-28T14:57:51.009Z,11.90
2019-04-28T15:00:28.177Z,9.67
2019-04-28T15:03:05.300Z,9.53
2019-04-28T15:05:54.736Z,9.37
2019-04-28T15:08:54.109Z,9.80
2019-04-28T15:11:34.657Z,9.47
2019-04-28T15:14:07.034Z,9.13
2019-04-28T15:16:39.355Z,9.93
2019-04-28T15:19:11.669Z,10.90
2019-04-28T15:21:43.670Z,9.50
2019-04-28T15:24:16.847Z,9.27
2019-04-28T15:26:49.803Z,10.87
2019-04-28T15:29:21.977Z,12.10
2019-04-28T15:31:54.053Z,13.20
2019-04-28T15:34:26.074Z,23.97
2019-04-28T15:37:09.161Z,22.17
2019-04-28T15:39:31.912Z,14.80
2019-04-28T15:42:04.423Z,23.37
2019-04-28T15:44:36.564Z,26.50
2019-04-28T15:47:09.907Z,21.00
2019-04-28T15:49:42.126Z,11.90
2019-04-28T15:52:14.010Z,9.93
2019-04-28T15:54:45.869Z,8.87
2019-04-28T15:57:17.721Z,8.60
2019-04-28T15:59:50.209Z,15.53
2019-04-28T16:02:22.217Z,14.33
2019-04-28T16:04:54.413Z,10.20
2019-04-28T16:07:26.434Z,10.93
2019-04-28T16:09:58.600Z,11.70
2019-04-28T16:12:30.925Z,10.33
2019-04-28T16:15:03.527Z,8.30
2019-04-28T16:17:35.765Z,9.13
2019-04-28T16:20:07.981Z,9.20
2019-04-28T16:22:40.288Z,17.83
2019-04-28T16:25:12.398Z,20.67
2019-04-28T16:27:44.685Z,20.43
2019-04-28T16:30:16.702Z,19.50
2019-04-28T16:32:48.798Z,11.60
2019-04-28T16:35:20.889Z,11.10
2019-04-28T16:37:52.808Z,11.80
2019-04-28T16:40:30.929Z,15.13
2019-04-28T16:43:09.680Z,24.80
2019-04-28T16:45:42.369Z,37.00
2019-04-28T16:48:14.597Z,31.20
2019-04-28T16:50:47.174Z,26.43
2019-04-28T16:53:19.507Z,21.80
2019-04-28T16:56:13.169Z,21.43
2019-04-28T16:59:13.181Z,14.63
2019-04-28T17:01:51.114Z,14.90
2019-04-28T17:04:23.445Z,16.53
2019-04-28T17:06:55.198Z,12.40
2019-04-28T17:09:27.335Z,13.07
2019-04-28T17:11:59.401Z,14.67
2019-04-28T17:14:31.606Z,15.40
2019-04-28T17:17:03.838Z,14.87
2019-04-28T17:19:36.093Z,22.07
2019-04-28T17:22:08.417Z,21.83
2019-04-28T17:24:40.597Z,19.93
2019-04-28T17:27:12.508Z,24.67
2019-04-28T17:29:44.614Z,20.00
2019-04-28T17:32:17.088Z,20.70
2019-04-28T17:34:49.332Z,20.57
2019-04-28T17:37:21.543Z,20.20
2019-04-28T17:39:53.456Z,24.73
2019-04-28T17:42:25.683Z,28.70
2019-04-28T17:44:57.868Z,25.63
2019-04-28T17:47:29.935Z,21.90
2019-04-28T17:50:01.805Z,18.00
2019-04-28T17:52:35.159Z,13.73
2019-04-28T17:55:07.847Z,10.63
2019-04-28T17:57:40.166Z,10.40
2019-04-28T18:00:24.993Z,10.37
2019-04-28T18:03:04.567Z,10.67
2019-04-28T18:05:43.963Z,14.43
2019-04-28T18:08:21.256Z,11.97
2019-04-28T18:10:49.758Z,12.87
2019-04-28T18:13:21.833Z,13.37
2019-04-28T18:16:15.852Z,13.83
2019-04-28T18:18:56.349Z,15.47
2019-04-28T18:21:28.565Z,14.63
2019-04-28T18:24:00.994Z,16.83
2019-04-28T18:26:32.912Z,17.27
2019-04-28T18:29:05.002Z,18.27
2019-04-28T18:31:58.673Z,26.97
2019-04-28T18:34:45.021Z,31.60
2019-04-28T18:37:41.753Z,37.63
2019-04-28T18:40:27.254Z,39.83
2019-04-28T18:43:06.357Z,39.60
2019-04-28T18:45:38.338Z,35.87
2019-04-28T18:48:10.379Z,33.70
2019-04-28T18:50:42.694Z,34.93
2019-04-28T18:55:55.966Z,36.87
2019-04-28T18:58:28.823Z,40.60
2019-04-28T19:01:22.582Z,44.30
2019-04-28T19:03:54.463Z,40.97
2019-04-28T19:06:26.913Z,43.93
2019-04-28T19:09:04.189Z,42.33
2019-04-28T19:11:48.649Z,45.70
2019-04-28T19:14:24.840Z,42.83
2019-04-28T19:17:15.573Z,37.67
2019-04-28T19:19:48.051Z,34.40
2019-04-28T19:22:20.530Z,35.07
2019-04-28T19:24:53.626Z,30.67
2019-04-28T19:27:25.670Z,33.43
2019-04-28T19:29:57.878Z,31.67
2019-04-28T19:32:30.682Z,33.53
2019-04-28T19:35:02.788Z,39.67
2019-04-28T19:37:36.217Z,39.87
2019-04-28T19:40:08.905Z,63.60
2019-04-28T19:42:41.163Z,44.60
2019-04-28T19:45:14.907Z,43.93
2019-04-28T19:47:47.084Z,41.37
2019-04-28T19:50:19.439Z,43.33
2019-04-28T19:52:51.490Z,37.93
2019-04-28T19:55:28.262Z,33.10
2019-04-28T19:58:20.010Z,32.40
2019-04-28T20:00:55.305Z,28.40
2019-04-28T20:03:27.566Z,24.03
2019-04-28T20:06:00.085Z,20.50
2019-04-28T20:08:32.401Z,20.63
2019-04-28T20:11:04.649Z,20.70
2019-04-28T20:13:36.704Z,20.57
2019-04-28T20:16:08.994Z,19.07
2019-04-28T20:18:41.502Z,18.70
2019-04-28T20:21:14.053Z,21.93
2019-04-28T20:23:46.341Z,22.13
2019-04-28T20:26:18.756Z,38.77
2019-04-28T20:28:50.960Z,21.93
2019-04-28T20:31:23.259Z,23.60
2019-04-28T20:33:55.201Z,26.90
2019-04-28T20:36:43.921Z,28.27
2019-04-28T20:39:22.926Z,28.00
2019-04-28T20:41:54.796Z,32.80
2019-04-28T20:44:26.810Z,33.20
2019-04-28T20:46:58.923Z,33.00
2019-04-28T20:49:31.010Z,35.67
2019-04-28T20:52:03.319Z,32.33
2019-04-28T20:54:35.742Z,31.67
2019-04-28T20:57:07.936Z,30.50
2019-04-28T20:59:39.974Z,32.20
2019-04-28T21:02:12.225Z,33.47
2019-04-28T21:04:44.188Z,34.07
2019-04-28T21:07:16.353Z,34.10
2019-04-28T21:09:48.630Z,39.67
2019-04-28T21:12:21.949Z,43.00
2019-04-28T21:14:54.436Z,46.47
2019-04-28T21:17:26.429Z,43.53
2019-04-28T21:19:58.923Z,46.20
2019-04-28T21:22:30.960Z,51.53
2019-04-28T21:25:02.967Z,53.37
2019-04-28T21:27:34.864Z,49.63
2019-04-28T21:30:07.631Z,56.70
2019-04-28T21:32:39.808Z,56.77
2019-04-28T21:35:12.424Z,50.23
2019-04-28T21:37:45.745Z,53.60
2019-04-28T21:40:18.922Z,58.10
2019-04-28T21:43:15.485Z,62.33
2019-04-28T21:46:06.624Z,59.03
2019-04-28T21:48:46.643Z,56.67
2019-04-28T21:51:18.882Z,43.87
2019-04-28T21:53:51.103Z,37.93
2019-04-28T21:56:23.611Z,35.90
2019-04-28T21:58:55.786Z,30.53
2019-04-28T22:01:28.421Z,29.00
2019-04-28T22:04:00.375Z,24.20
2019-04-28T22:06:37.675Z,22.53
2019-04-28T22:09:10.281Z,23.97
2019-04-28T22:11:43.908Z,23.93
2019-04-28T22:14:16.053Z,22.70
2019-04-28T22:16:48.478Z,22.47
2019-04-28T22:19:20.273Z,23.97
2019-04-28T22:21:52.525Z,25.37
2019-04-28T22:24:44.552Z,25.80
2019-04-28T22:27:22.462Z,26.87
2019-04-28T22:29:54.808Z,25.33
2019-04-28T22:32:27.082Z,26.20
2019-04-28T22:34:59.372Z,23.60
2019-04-28T22:37:31.651Z,24.90
2019-04-28T22:40:04.090Z,24.00
2019-04-28T22:42:36.303Z,24.87
2019-04-28T22:45:10.191Z,22.60
2019-04-28T22:47:42.284Z,23.27
2019-04-28T22:50:37.415Z,24.37
2019-04-28T22:53:09.633Z,24.23
2019-04-28T22:55:50.891Z,25.10
2019-04-28T22:58:39.482Z,29.30
2019-04-28T23:01:32.407Z,33.40
2019-04-28T23:04:30.413Z,39.87
2019-04-28T23:07:02.621Z,40.63
2019-04-28T23:09:34.665Z,38.37
2019-04-28T23:12:06.734Z,37.53
2019-04-28T23:14:38.986Z,36.00
2019-04-28T23:17:13.229Z,33.53
2019-04-28T23:19:45.529Z,33.03
2019-04-28T23:22:45.885Z,31.90
2019-04-28T23:25:07.307Z,29.60
2019-04-28T23:27:39.265Z,31.00
2019-04-28T23:30:11.987Z,31.40
2019-04-28T23:32:44.037Z,32.47
2019-04-28T23:35:16.321Z,32.00
2019-04-28T23:37:48.599Z,28.87
2019-04-28T23:40:20.876Z,29.03
2019-04-28T23:42:57.663Z,28.23
2019-04-28T23:45:30.333Z,29.40
2019-04-28T23:48:02.643Z,28.30
2019-04-28T23:50:44.296Z,30.47
2019-04-28T23:53:18.023Z,28.83
2019-04-28T23:55:50.148Z,29.77
2019-04-28T23:58:22.273Z,29.90
